Time;durP1;ratioP1;P1;durP2;ratioP2;P2;SDS_P1;SDS_P2;PMS_P1;PMS_P2;Temp;Humidity;BMP_temperature;BMP_pressure;BME280_temperature;BME280_humidity;BME280_pressure;Samples;Min_cycle;Max_cycle;Signal;HPM_P1;HPM_P2
2021/08/20 00:04:46;;;;;;;7.17;4.40;;;;;;;17.42;79.91;99069.09;4032368;86;21095;-83
2021/08/20 00:10:50;;;;;;;5.78;3.95;;;;;;;17.38;79.78;99064.82;4043709;86;21081;-83
2021/08/20 00:16:52;;;;;;;7.30;4.78;;;;;;;17.29;79.98;99068.72;4022358;86;21563;-84
2021/08/20 00:22:54;;;;;;;6.40;4.47;;;;;;;17.37;80.02;99068.80;4039475;86;21106;-83
2021/08/20 00:28:56;;;;;;;7.25;4.60;;;;;;;17.28;80.39;99062.39;4031946;86;21020;-83
2021/08/20 00:34:57;;;;;;;6.95;4.58;;;;;;;17.27;80.80;99065.58;4024354;86;21048;-83
2021/08/20 00:40:58;;;;;;;7.92;4.37;;;;;;;17.30;81.16;99067.51;4027148;86;21457;-84
2021/08/20 00:47:00;;;;;;;6.25;4.03;;;;;;;17.31;81.46;99065.70;4037865;86;21056;-83
2021/08/20 00:53:02;;;;;;;5.72;4.45;;;;;;;17.31;81.72;99064.32;4042217;86;21575;-85
2021/08/20 00:59:05;;;;;;;7.83;4.60;;;;;;;17.33;81.80;99073.59;4040018;86;21011;-83
2021/08/20 01:05:10;;;;;;;7.08;4.00;;;;;;;17.40;81.61;99067.96;4035214;86;21568;-84
2021/08/20 01:11:12;;;;;;;6.53;4.08;;;;;;;17.32;81.64;99062.34;4032129;86;21039;-83
2021/08/20 01:17:15;;;;;;;5.28;3.75;;;;;;;17.24;81.93;99057.53;4051705;86;21063;-83
2021/08/20 01:23:18;;;;;;;6.10;3.70;;;;;;;17.23;82.17;99065.03;4036766;86;21047;-83
2021/08/20 01:29:21;;;;;;;9.03;4.22;;;;;;;17.11;82.12;99062.05;4047828;86;21039;-83
2021/08/20 01:35:23;;;;;;;6.30;4.05;;;;;;;17.14;82.50;99065.36;4033199;86;21090;-83
2021/08/20 01:41:28;;;;;;;6.08;3.72;;;;;;;17.18;82.85;99066.88;4038451;86;21063;-84
2021/08/20 01:47:30;;;;;;;6.78;4.12;;;;;;;17.14;82.83;99062.59;4047298;85;22058;-84
2021/08/20 01:53:31;;;;;;;7.28;4.33;;;;;;;17.10;83.21;99059.88;4045211;85;21567;-83
2021/08/20 01:59:33;;;;;;;9.48;4.25;;;;;;;17.13;83.38;99062.42;4041613;86;21623;-84
2021/08/20 02:05:34;;;;;;;7.05;4.17;;;;;;;17.15;83.72;99058.63;4057008;86;21067;-83
2021/08/20 02:11:38;;;;;;;7.53;4.22;;;;;;;17.15;83.94;99053.88;4055194;86;21454;-83
2021/08/20 02:17:40;;;;;;;7.30;4.80;;;;;;;17.17;83.88;99050.11;4041256;85;21059;-83
2021/08/20 02:23:42;;;;;;;8.33;4.50;;;;;;;17.11;84.24;99051.78;4030522;86;21067;-83
2021/08/20 02:29:44;;;;;;;6.78;4.55;;;;;;;17.10;84.35;99044.66;4036142;86;21142;-83
2021/08/20 02:35:46;;;;;;;8.98;4.17;;;;;;;17.07;84.56;99050.23;4046691;86;21520;-83
2021/08/20 02:41:47;;;;;;;13.20;4.17;;;;;;;17.10;84.52;99048.05;4044556;86;21524;-84
2021/08/20 02:47:48;;;;;;;5.53;3.87;;;;;;;17.14;84.69;99046.00;4043200;86;21543;-84
2021/08/20 02:53:50;;;;;;;8.33;4.58;;;;;;;17.10;84.64;99046.67;4053988;86;22031;-84
2021/08/20 02:59:51;;;;;;;7.28;4.22;;;;;;;16.88;84.87;99050.92;4038274;86;21109;-83
2021/08/20 03:05:53;;;;;;;9.33;4.55;;;;;;;16.93;85.26;99053.99;4048903;86;21024;-83
2021/08/20 03:11:55;;;;;;;6.85;4.55;;;;;;;17.00;85.36;99062.20;4045965;86;21963;-83
2021/08/20 03:17:57;;;;;;;6.97;4.53;;;;;;;17.06;85.65;99057.77;4045921;86;21082;-83
2021/08/20 03:23:59;;;;;;;9.53;4.65;;;;;;;17.06;85.55;99060.53;4029743;86;22335;-84
2021/08/20 03:30:03;;;;;;;8.00;4.33;;;;;;;17.05;85.84;99048.51;4043041;86;21055;-83
2021/08/20 03:36:08;;;;;;;8.60;5.12;;;;;;;17.01;85.86;99051.31;4034317;86;21064;-83
2021/08/20 03:42:10;;;;;;;11.18;4.40;;;;;;;16.96;85.85;99056.55;4050260;86;21044;-83
2021/08/20 03:48:13;;;;;;;8.43;4.47;;;;;;;16.80;86.11;99061.27;4022979;86;21652;-83
2021/08/20 03:54:14;;;;;;;7.45;4.20;;;;;;;16.78;86.24;99069.20;4042579;86;21154;-85
2021/08/20 04:00:17;;;;;;;11.30;5.25;;;;;;;16.71;86.76;99075.42;4039977;86;21152;-83
2021/08/20 04:06:19;;;;;;;10.58;4.40;;;;;;;16.85;86.87;99068.34;4049288;86;21056;-84
2021/08/20 04:12:21;;;;;;;16.07;5.37;;;;;;;16.88;86.72;99077.95;4061075;86;21036;-83
2021/08/20 04:18:31;;;;;;;9.93;4.92;;;;;;;16.81;87.05;99073.11;4046254;86;21164;-83
2021/08/20 04:24:32;;;;;;;8.60;4.42;;;;;;;16.83;87.12;99083.96;4043985;86;21543;-83
2021/08/20 04:30:36;;;;;;;11.20;4.65;;;;;;;16.85;87.46;99078.78;4037302;85;40991;-83
2021/08/20 04:36:45;;;;;;;7.60;4.60;;;;;;;16.91;87.37;99087.41;4026260;86;21650;-83
2021/08/20 04:43:05;;;;;;;9.73;4.42;;;;;;;16.79;87.54;99083.80;4057330;86;21405;-83
2021/08/20 04:49:20;;;;;;;10.63;5.03;;;;;;;16.80;87.68;99081.23;4055883;86;21014;-83
2021/08/20 04:55:26;;;;;;;9.77;5.03;;;;;;;16.82;87.73;99081.58;4038143;86;21037;-83
2021/08/20 05:01:28;;;;;;;9.20;4.95;;;;;;;16.86;88.15;99083.13;4067114;85;21090;-85
2021/08/20 05:07:29;;;;;;;11.12;4.85;;;;;;;16.97;88.23;99085.16;4061770;86;21328;-84
2021/08/20 05:13:30;;;;;;;9.00;4.92;;;;;;;17.06;87.93;99088.78;4068233;86;21072;-83
2021/08/20 05:19:31;;;;;;;12.28;5.55;;;;;;;17.18;88.30;99089.59;4044870;86;21040;-82
2021/08/20 05:25:35;;;;;;;9.83;4.62;;;;;;;17.26;88.18;99091.06;4053308;85;21025;-84
2021/08/20 05:31:36;;;;;;;10.20;4.90;;;;;;;17.27;88.26;99090.48;3921661;88;21128;-84
2021/08/20 05:37:38;;;;;;;8.05;4.97;;;;;;;17.21;88.18;99100.63;4064518;85;21071;-83
2021/08/20 05:43:39;;;;;;;11.57;5.20;;;;;;;17.36;88.57;99097.66;4068382;85;21096;-84
2021/08/20 05:49:40;;;;;;;10.65;5.40;;;;;;;17.28;88.21;99102.51;4056177;86;21062;-83
2021/08/20 05:55:41;;;;;;;8.60;5.53;;;;;;;17.30;88.32;99100.71;4042502;86;21554;-84
2021/08/20 06:01:43;;;;;;;6.87;4.67;;;;;;;17.41;88.30;99088.89;4070587;86;21071;-84
2021/08/20 06:07:44;;;;;;;8.45;4.40;;;;;;;17.38;87.80;99091.91;4074082;85;21043;-84
2021/08/20 06:13:49;;;;;;;8.73;4.95;;;;;;;17.41;87.61;99088.30;4066210;85;21033;-84
2021/08/20 06:19:49;;;;;;;8.50;5.65;;;;;;;17.48;87.90;99097.12;3966260;87;21087;-83
2021/08/20 06:25:52;;;;;;;8.33;4.15;;;;;;;17.61;87.70;99089.20;4047440;85;21050;-84
2021/08/20 06:31:53;;;;;;;5.20;3.50;;;;;;;17.67;87.64;99095.83;3977762;88;21685;-83
2021/08/20 06:37:54;;;;;;;6.45;3.70;;;;;;;17.74;87.24;99101.27;4042304;85;21112;-83
2021/08/20 06:43:55;;;;;;;8.93;5.37;;;;;;;17.83;87.08;99109.81;4066917;86;21024;-84
2021/08/20 06:49:58;;;;;;;12.05;6.33;;;;;;;17.96;86.59;99111.39;4046100;86;21060;-84
2021/08/20 06:56:00;;;;;;;9.63;5.30;;;;;;;18.06;86.59;99113.17;4057702;86;21076;-84
2021/08/20 07:02:01;;;;;;;11.08;6.17;;;;;;;18.15;86.34;99118.36;4070693;85;21082;-86
2021/08/20 07:08:06;;;;;;;10.63;5.83;;;;;;;18.22;86.49;99111.91;4054831;86;21022;-85
2021/08/20 07:14:08;;;;;;;11.15;5.78;;;;;;;18.27;86.21;99117.77;4061871;86;21168;-84
2021/08/20 07:20:11;;;;;;;7.80;4.45;;;;;;;18.44;85.33;99126.98;4060554;86;21080;-84
2021/08/20 07:26:13;;;;;;;10.23;4.55;;;;;;;18.50;85.24;99120.53;4072039;86;21053;-83
2021/08/20 07:32:16;;;;;;;9.40;4.55;;;;;;;18.58;84.66;99135.04;4064622;86;21048;-85
2021/08/20 07:38:18;;;;;;;9.20;4.12;;;;;;;18.65;84.11;99130.76;4030055;86;21666;-85
2021/08/20 07:44:20;;;;;;;7.62;4.20;;;;;;;18.78;83.36;99133.06;4034519;86;20980;-84
2021/08/20 07:50:22;;;;;;;6.12;3.40;;;;;;;18.90;83.14;99127.48;4058764;85;21050;-84
2021/08/20 07:56:25;;;;;;;7.35;3.80;;;;;;;19.04;82.96;99131.36;4068340;85;21022;-84
2021/08/20 08:02:26;;;;;;;3.85;3.20;;;;;;;19.25;82.98;99140.61;4067625;86;21139;-85
2021/08/20 08:08:28;;;;;;;6.30;3.17;;;;;;;19.43;82.66;99137.68;4063764;86;21772;-85
2021/08/20 08:14:30;;;;;;;6.10;3.55;;;;;;;19.65;82.14;99129.64;4052710;86;21056;-85
2021/08/20 08:20:31;;;;;;;5.58;3.50;;;;;;;19.89;81.96;99132.42;4005432;87;21092;-85
2021/08/20 08:26:32;;;;;;;7.95;4.65;;;;;;;20.08;81.36;99144.06;4001293;87;21108;-84
2021/08/20 08:32:34;;;;;;;5.58;3.62;;;;;;;20.25;80.39;99146.27;3957284;87;21450;-84
2021/08/20 08:38:35;;;;;;;4.53;3.20;;;;;;;20.28;80.31;99142.62;4068073;85;21072;-85
2021/08/20 08:44:36;;;;;;;4.87;3.40;;;;;;;20.47;79.97;99148.68;4060945;86;21527;-85
2021/08/20 08:50:39;;;;;;;6.30;4.25;;;;;;;20.63;79.58;99150.02;4064683;86;21131;-85
2021/08/20 08:56:48;;;;;;;8.73;3.70;;;;;;;20.66;78.38;99154.70;4049751;86;21013;-85
2021/08/20 09:02:50;;;;;;;5.83;3.60;;;;;;;20.84;78.48;99153.02;4051226;86;21537;-85
2021/08/20 09:09:11;;;;;;;8.78;3.52;;;;;;;21.02;78.18;99155.31;4065880;86;21508;-84
2021/08/20 09:15:16;;;;;;;6.78;4.20;;;;;;;21.13;76.63;99156.58;4065658;86;21595;-86
2021/08/20 09:21:17;;;;;;;8.45;4.00;;;;;;;21.43;75.33;99147.74;4021972;85;21058;-86
2021/08/20 09:27:25;;;;;;;4.97;3.65;;;;;;;21.62;74.90;99142.58;4051205;86;21127;-85
2021/08/20 09:33:47;;;;;;;7.78;4.00;;;;;;;22.09;74.53;99144.09;4085100;86;21672;-85
2021/08/20 09:40:04;;;;;;;6.53;3.52;;;;;;;22.47;73.97;99133.64;4026471;86;21439;-86
2021/08/20 09:46:10;;;;;;;8.55;3.50;;;;;;;22.93;73.26;99127.21;4058095;86;21408;-86
2021/08/20 09:52:16;;;;;;;6.58;3.37;;;;;;;23.76;72.27;99125.08;4051157;86;21068;-85
2021/08/20 09:58:18;;;;;;;9.43;3.50;;;;;;;24.40;67.12;99118.42;4056485;85;21051;-86
2021/08/20 10:04:20;;;;;;;6.37;3.25;;;;;;;24.55;65.92;99112.36;4066098;86;21020;-86
2021/08/20 10:10:22;;;;;;;9.48;3.98;;;;;;;25.34;66.81;99116.85;4047728;85;22179;-86
2021/08/20 10:16:29;;;;;;;5.65;3.40;;;;;;;25.77;65.66;99114.35;4035544;86;21164;-86
2021/08/20 10:22:31;;;;;;;5.53;3.58;;;;;;;25.90;61.61;99100.11;4063704;86;21066;-87
2021/08/20 10:28:38;;;;;;;6.55;3.25;;;;;;;26.66;61.70;99091.84;4053151;86;21021;-86
2021/08/20 10:34:41;;;;;;;5.22;2.83;;;;;;;26.82;60.13;99087.80;3995803;86;21117;-86
2021/08/20 10:40:46;;;;;;;4.65;2.80;;;;;;;27.79;59.51;99082.20;4008137;86;21029;-87
2021/08/20 10:46:57;;;;;;;6.07;2.87;;;;;;;28.21;58.81;99081.16;3994504;87;21073;-87
2021/08/20 10:53:04;;;;;;;2.77;2.20;;;;;;;28.63;58.73;99080.67;4014596;86;21060;-86
2021/08/20 10:59:07;;;;;;;5.90;2.25;;;;;;;28.41;56.61;99074.77;4012408;86;21610;-85
2021/08/20 11:05:14;;;;;;;2.45;2.00;;;;;;;28.28;56.00;99072.31;4009555;87;21112;-87
2021/08/20 11:11:45;;;;;;;2.47;1.62;;;;;;;28.46;55.55;99069.81;4012146;86;21104;-87
2021/08/20 11:18:06;;;;;;;3.50;1.72;;;;;;;28.79;54.44;99068.20;3992181;87;21035;-87
2021/08/20 11:24:14;;;;;;;3.98;1.87;;;;;;;29.08;52.09;99063.77;4012432;86;21175;-86
2021/08/20 11:30:22;;;;;;;3.25;2.15;;;;;;;29.27;52.85;99067.66;4007390;86;21203;-87
2021/08/20 11:36:23;;;;;;;2.12;1.92;;;;;;;29.27;52.36;99064.18;3955205;87;21137;-87
2021/08/20 11:42:28;;;;;;;5.15;1.82;;;;;;;29.36;51.59;99066.06;3933416;88;21572;-87
2021/08/20 11:48:31;;;;;;;3.55;1.87;;;;;;;28.86;50.79;99067.73;4008365;87;21028;-88
2021/08/20 11:54:34;;;;;;;2.27;1.72;;;;;;;28.06;50.32;99067.01;3994921;86;21080;-87
2021/08/20 12:00:38;;;;;;;2.45;1.85;;;;;;;27.55;51.00;99063.29;3976195;87;21160;-87
2021/08/20 12:06:41;;;;;;;3.67;1.90;;;;;;;26.92;51.06;99065.41;4075582;85;21023;-87
2021/08/20 12:12:47;;;;;;;3.12;1.60;;;;;;;26.64;50.81;99059.25;4009405;85;21187;-87
2021/08/20 12:18:48;;;;;;;3.37;1.80;;;;;;;26.38;50.60;99057.42;4013274;85;21508;-87
2021/08/20 12:24:52;;;;;;;2.80;1.77;;;;;;;26.25;51.38;99060.47;4051304;85;21093;-86
2021/08/20 12:31:04;;;;;;;2.12;1.57;;;;;;;26.05;51.48;99054.70;4068481;85;21043;-88
2021/08/20 12:37:06;;;;;;;3.58;1.70;;;;;;;25.76;51.98;99052.50;4045078;85;21098;-86
2021/08/20 12:43:27;;;;;;;4.90;1.95;;;;;;;25.57;52.60;99055.27;4041649;86;21062;-86
2021/08/20 12:49:28;;;;;;;2.22;1.98;;;;;;;25.48;52.54;99054.53;4045824;85;21071;-87
2021/08/20 12:55:44;;;;;;;3.02;1.70;;;;;;;25.30;52.68;99055.34;4049139;86;21047;-87
2021/08/20 13:01:54;;;;;;;2.35;1.65;;;;;;;25.22;53.05;99056.13;3978286;87;21556;-87
2021/08/20 13:08:02;;;;;;;5.10;2.40;;;;;;;25.08;53.15;99058.98;4055238;85;21744;-87
2021/08/20 13:14:05;;;;;;;10.43;2.10;;;;;;;25.05;53.38;99059.92;4047983;86;21046;-86
2021/08/20 13:20:08;;;;;;;2.75;1.95;;;;;;;24.93;53.91;99065.71;4062908;86;21087;-86
2021/08/20 13:26:09;;;;;;;3.30;2.00;;;;;;;24.78;53.52;99057.78;3968043;87;21137;-86
2021/08/20 13:32:11;;;;;;;2.65;1.77;;;;;;;24.52;53.78;99059.48;3878518;89;21133;-86
2021/08/20 13:38:12;;;;;;;2.35;2.02;;;;;;;24.28;54.21;99051.58;4067437;85;20985;-85
2021/08/20 13:44:13;;;;;;;3.98;2.30;;;;;;;24.19;54.44;99051.58;4070427;86;21054;-85
2021/08/20 13:50:17;;;;;;;4.35;2.00;;;;;;;23.93;54.86;99031.31;4050980;86;20999;-85
2021/08/20 13:56:26;;;;;;;2.50;1.90;;;;;;;23.88;55.28;99047.30;4060552;86;21455;-86
2021/08/20 14:02:28;;;;;;;3.65;1.67;;;;;;;23.89;55.38;99044.65;4073014;86;21104;-87
2021/08/20 14:08:31;;;;;;;7.85;1.95;;;;;;;23.88;55.98;99043.10;4054791;86;21052;-87
2021/08/20 14:14:32;;;;;;;8.33;2.40;;;;;;;23.84;56.60;99043.86;4053766;86;21373;-87
2021/08/20 14:20:34;;;;;;;3.35;2.45;;;;;;;23.71;56.82;99049.57;4068651;86;21100;-86
2021/08/20 14:26:35;;;;;;;3.37;2.40;;;;;;;23.50;57.25;99044.07;4067083;86;21088;-86
2021/08/20 14:32:37;;;;;;;3.42;2.30;;;;;;;23.38;57.75;99049.95;4065342;86;20983;-86
2021/08/20 14:38:39;;;;;;;4.22;2.22;;;;;;;23.16;58.11;99056.17;4068490;85;21148;-86
2021/08/20 14:44:40;;;;;;;6.83;2.30;;;;;;;22.95;58.30;99055.57;4074792;85;21044;-84
2021/08/20 14:50:42;;;;;;;7.12;2.65;;;;;;;22.84;58.62;99055.19;4077313;85;21103;-86
2021/08/20 14:56:43;;;;;;;3.45;1.95;;;;;;;22.73;59.25;99058.99;4069734;85;44317;-86
2021/08/20 15:02:45;;;;;;;3.30;2.00;;;;;;;22.63;59.35;99054.59;4113947;85;21047;-86
2021/08/20 15:08:49;;;;;;;3.27;1.98;;;;;;;22.54;59.42;99058.08;4114871;85;21025;-86
2021/08/20 15:14:54;;;;;;;6.60;2.40;;;;;;;22.40;59.13;99054.38;4115019;85;21101;-86
2021/08/20 15:20:58;;;;;;;4.83;3.10;;;;;;;22.35;59.66;99046.58;4099188;85;21089;-86
2021/08/20 15:27:02;;;;;;;5.92;2.42;;;;;;;22.30;59.56;99051.34;4111501;85;20994;-87
2021/08/20 15:33:07;;;;;;;5.72;2.50;;;;;;;22.21;60.06;99040.11;4133407;85;21057;-86
2021/08/20 15:39:08;;;;;;;9.80;3.10;;;;;;;22.16;60.27;99049.05;4100882;85;21049;-86
2021/08/20 15:45:10;;;;;;;6.78;2.90;;;;;;;22.08;60.32;99042.16;4112175;85;21035;-86
2021/08/20 15:51:16;;;;;;;3.90;2.62;;;;;;;21.94;60.81;99048.21;4131325;85;21006;-86
2021/08/20 15:57:19;;;;;;;6.00;3.02;;;;;;;21.83;61.60;99053.39;4157013;85;21026;-86
2021/08/20 16:03:27;;;;;;;4.87;2.67;;;;;;;21.80;62.51;99054.89;4110410;85;21080;-86
2021/08/20 16:09:29;;;;;;;5.90;3.20;;;;;;;21.75;63.08;99053.45;4118754;85;21033;-86
2021/08/20 16:15:30;;;;;;;6.35;3.22;;;;;;;21.66;63.17;99052.70;4076093;85;21045;-86
2021/08/20 16:21:31;;;;;;;9.70;4.05;;;;;;;21.69;63.93;99057.98;4118272;85;21050;-86
2021/08/20 16:27:33;;;;;;;5.53;3.80;;;;;;;21.76;62.81;99051.42;4114765;85;21093;-86
2021/08/20 16:33:36;;;;;;;8.43;3.80;;;;;;;21.75;63.14;99053.45;4125039;85;21062;-87
2021/08/20 16:39:38;;;;;;;6.50;3.90;;;;;;;21.75;63.57;99057.64;4006246;87;21582;-86
2021/08/20 16:45:39;;;;;;;5.58;3.60;;;;;;;21.65;64.26;99056.72;4020317;86;21601;-86
2021/08/20 16:51:47;;;;;;;6.22;3.33;;;;;;;21.55;64.53;99065.41;4001003;86;21125;-86
2021/08/20 16:57:44;;;;;;;9.10;5.28;;;;;;;21.50;65.09;99061.17;4008614;87;21599;-86
2021/08/20 17:03:46;;;;;;;8.25;4.72;;;;;;;21.43;65.43;99073.95;3951901;88;21150;-86
2021/08/20 17:09:50;;;;;;;8.05;4.42;;;;;;;21.34;66.00;99070.27;3989114;87;21028;-86
2021/08/20 17:15:51;;;;;;;8.48;4.97;;;;;;;21.27;66.60;99076.83;3988539;87;21025;-86
2021/08/20 17:21:53;;;;;;;7.25;4.97;;;;;;;21.14;66.73;99065.52;4115106;85;21694;-86
2021/08/20 17:27:56;;;;;;;9.50;5.00;;;;;;;20.99;67.15;99069.93;4115767;85;20990;-86
2021/08/20 17:33:57;;;;;;;13.13;5.37;;;;;;;20.89;67.90;99066.84;4104867;85;21142;-86
2021/08/20 17:40:00;;;;;;;10.98;5.08;;;;;;;20.79;68.34;99057.58;4112964;85;21050;-86
2021/08/20 17:46:03;;;;;;;11.08;5.37;;;;;;;20.68;68.66;99061.88;4111660;85;21494;-86
2021/08/20 17:52:10;;;;;;;9.58;5.33;;;;;;;20.53;69.16;99065.66;4135928;85;21034;-85
2021/08/20 17:58:12;;;;;;;9.13;5.33;;;;;;;20.45;70.08;99071.86;4093427;85;21093;-86
2021/08/20 18:04:15;;;;;;;8.73;5.08;;;;;;;20.36;70.27;99083.60;4119495;85;21067;-86
2021/08/20 18:10:16;;;;;;;12.65;5.20;;;;;;;20.25;70.16;99088.66;4086008;85;21093;-86
2021/08/20 18:16:18;;;;;;;8.33;5.22;;;;;;;20.18;70.95;99088.27;4083329;85;21035;-86
2021/08/20 18:22:19;;;;;;;12.78;5.95;;;;;;;20.07;71.06;99092.49;4096135;85;21042;-85
2021/08/20 18:28:21;;;;;;;9.15;5.03;;;;;;;19.96;71.74;99103.88;4111102;85;21029;-86
2021/08/20 18:34:23;;;;;;;10.28;5.20;;;;;;;19.85;72.17;99103.96;4105478;85;22204;-86
2021/08/20 18:40:26;;;;;;;8.15;5.60;;;;;;;19.76;72.65;99107.95;4087349;85;21146;-86
2021/08/20 18:46:29;;;;;;;9.70;5.80;;;;;;;19.68;72.82;99112.91;4114780;85;21107;-85
2021/08/20 18:52:32;;;;;;;8.38;5.67;;;;;;;19.62;73.36;99117.38;4111240;85;21061;-86
2021/08/20 18:58:33;;;;;;;11.22;5.65;;;;;;;19.58;73.49;99122.25;4102982;85;21003;-86
2021/08/20 19:04:35;;;;;;;10.40;6.53;;;;;;;19.56;74.01;99127.45;4093215;85;21110;-86
2021/08/20 19:10:36;;;;;;;11.12;6.90;;;;;;;19.56;74.19;99129.46;4126995;85;21423;-86
2021/08/20 19:16:38;;;;;;;10.28;7.10;;;;;;;19.54;74.15;99127.72;4089348;85;21030;-85
2021/08/20 19:22:40;;;;;;;11.00;7.20;;;;;;;19.53;74.25;99124.77;4093522;85;21724;-85
2021/08/20 19:28:42;;;;;;;11.83;6.50;;;;;;;19.52;74.52;99127.36;4116354;85;21053;-85
2021/08/20 19:34:44;;;;;;;13.50;7.15;;;;;;;19.50;74.49;99137.50;4108757;85;21065;-84
2021/08/20 19:40:46;;;;;;;10.48;7.17;;;;;;;19.45;74.72;99144.19;4085401;85;21067;-85
2021/08/20 19:46:47;;;;;;;11.43;7.65;;;;;;;19.26;74.77;99140.20;4096105;85;21022;-85
2021/08/20 19:52:48;;;;;;;10.80;7.35;;;;;;;19.10;75.23;99142.13;4108211;85;21498;-85
2021/08/20 19:58:49;;;;;;;14.18;6.72;;;;;;;19.01;75.39;99145.49;4091120;85;21050;-85
2021/08/20 20:04:50;;;;;;;9.58;6.22;;;;;;;18.96;76.18;99143.81;4104561;85;22011;-85
2021/08/20 20:10:52;;;;;;;10.30;5.87;;;;;;;18.90;76.48;99144.12;4108381;84;20983;-84
2021/08/20 20:16:54;;;;;;;15.25;6.40;;;;;;;18.82;76.57;99149.64;4128158;85;21003;-84
2021/08/20 20:22:55;;;;;;;13.72;6.83;;;;;;;18.68;76.97;99150.70;4107670;85;21021;-85
2021/08/20 20:28:59;;;;;;;12.40;6.78;;;;;;;18.56;77.22;99156.84;4102897;85;20979;-85
2021/08/20 20:35:00;;;;;;;10.90;6.22;;;;;;;18.46;77.18;99157.22;4120471;85;21030;-85
2021/08/20 20:41:04;;;;;;;10.68;6.58;;;;;;;18.49;77.93;99167.48;4123490;85;21549;-85
2021/08/20 20:47:05;;;;;;;10.25;6.12;;;;;;;18.45;77.88;99179.81;4097150;85;21074;-86
2021/08/20 20:53:07;;;;;;;8.73;5.97;;;;;;;18.38;78.03;99170.25;4088859;85;21061;-85
2021/08/20 20:59:09;;;;;;;14.60;6.15;;;;;;;18.33;78.69;99181.79;4115297;85;21132;-85
2021/08/20 21:05:12;;;;;;;11.25;6.40;;;;;;;18.33;78.67;99187.33;4098739;85;21001;-85
2021/08/20 21:11:14;;;;;;;9.38;6.40;;;;;;;18.23;78.88;99192.44;4085377;85;21091;-85
2021/08/20 21:17:16;;;;;;;14.15;7.37;;;;;;;18.14;78.98;99196.35;4071728;85;21062;-85
2021/08/20 21:23:19;;;;;;;10.40;7.08;;;;;;;17.91;80.05;99211.56;4102249;85;21070;-85
2021/08/20 21:29:21;;;;;;;23.35;9.35;;;;;;;17.90;80.16;99212.77;4131343;85;21054;-85
2021/08/20 21:35:22;;;;;;;13.30;8.03;;;;;;;17.92;80.05;99215.30;4112337;85;21086;-85
2021/08/20 21:41:24;;;;;;;16.48;8.60;;;;;;;18.00;79.99;99223.68;4091340;85;21113;-85
2021/08/20 21:47:25;;;;;;;14.45;8.83;;;;;;;17.99;80.10;99226.88;4130754;85;21146;-85
2021/08/20 21:53:29;;;;;;;17.37;8.28;;;;;;;18.06;80.12;99231.70;4116840;85;21101;-85
2021/08/20 21:59:30;;;;;;;14.53;8.38;;;;;;;18.09;80.13;99229.47;4138719;85;21092;-85
2021/08/20 22:05:33;;;;;;;16.20;8.05;;;;;;;18.08;80.07;99234.05;4091015;85;21057;-85
2021/08/20 22:11:34;;;;;;;16.00;8.05;;;;;;;18.10;80.14;99233.80;4131528;85;21081;-85
2021/08/20 22:17:35;;;;;;;13.95;7.25;;;;;;;18.12;80.35;99227.88;4119252;85;21026;-85
2021/08/20 22:23:38;;;;;;;13.45;7.40;;;;;;;18.17;80.85;99245.38;4088687;85;21045;-85
2021/08/20 22:29:39;;;;;;;12.88;7.15;;;;;;;18.16;80.96;99245.20;4129270;85;21056;-85
2021/08/20 22:35:41;;;;;;;12.03;6.85;;;;;;;18.10;81.13;99246.27;4090852;85;21669;-85
2021/08/20 22:41:42;;;;;;;15.15;7.83;;;;;;;18.05;81.58;99259.23;4111436;85;21067;-86
2021/08/20 22:47:44;;;;;;;11.05;7.08;;;;;;;18.04;81.45;99259.02;4097834;85;20977;-84
2021/08/20 22:53:45;;;;;;;13.70;7.65;;;;;;;18.01;81.59;99255.70;4127128;85;21066;-85
2021/08/20 22:59:49;;;;;;;13.50;8.00;;;;;;;17.99;81.76;99259.52;4121122;85;21050;-85
2021/08/20 23:05:50;;;;;;;12.80;6.85;;;;;;;17.96;81.99;99258.94;4121754;85;21041;-85
2021/08/20 23:11:51;;;;;;;12.78;7.25;;;;;;;17.95;82.10;99257.97;4132290;85;21563;-85
2021/08/20 23:17:53;;;;;;;11.85;7.22;;;;;;;17.92;82.34;99254.06;4136930;85;21593;-84
2021/08/20 23:23:54;;;;;;;12.30;6.65;;;;;;;17.94;82.59;99257.21;4121132;85;21035;-85
2021/08/20 23:29:57;;;;;;;13.68;7.87;;;;;;;17.91;82.77;99253.89;4085540;85;21000;-85
2021/08/20 23:35:58;;;;;;;11.75;6.53;;;;;;;17.84;82.79;99257.34;4120524;85;21620;-84
2021/08/20 23:41:59;;;;;;;17.67;7.47;;;;;;;17.80;83.35;99260.77;4078848;85;21086;-85
2021/08/20 23:48:03;;;;;;;11.85;6.62;;;;;;;17.83;83.65;99259.94;4132568;85;21030;-84
2021/08/20 23:54:05;;;;;;;12.23;7.45;;;;;;;17.84;83.94;99269.80;4072826;85;21015;-84
